sensor_id;sensor_type;location;lat;lon;timestamp;P1;P2;P0
75187;PMS7003;63762;51.334;22.108;2022-11-20T00:05:59;6;4;1
75187;PMS7003;63762;51.334;22.108;2022-11-20T00:16:04;6;6;3
75187;PMS7003;63762;51.334;22.108;2022-11-20T00:26:11;7;5;2
75187;PMS7003;63762;51.334;22.108;2022-11-20T00:36:20;8;5;2
75187;PMS7003;63762;51.334;22.108;2022-11-20T00:46:25;4;1;0
75187;PMS7003;63762;51.334;22.108;2022-11-20T00:56:30;8;1;0
75187;PMS7003;63762;51.334;22.108;2022-11-20T01:06:38;1;1;0
75187;PMS7003;63762;51.334;22.108;2022-11-20T01:16:46;1;1;1
75187;PMS7003;63762;51.334;22.108;2022-11-20T01:26:52;3;1;0
75187;PMS7003;63762;51.334;22.108;2022-11-20T01:36:59;2;2;0
75187;PMS7003;63762;51.334;22.108;2022-11-20T01:47:06;2;2;1
75187;PMS7003;63762;51.334;22.108;2022-11-20T01:57:13;7;2;1
75187;PMS7003;63762;51.334;22.108;2022-11-20T02:07:20;1;1;0
75187;PMS7003;63762;51.334;22.108;2022-11-20T02:17:27;7;1;0
75187;PMS7003;63762;51.334;22.108;2022-11-20T02:27:34;1;1;0
75187;PMS7003;63762;51.334;22.108;2022-11-20T02:37:42;4;2;0
75187;PMS7003;63762;51.334;22.108;2022-11-20T02:47:49;3;2;1
75187;PMS7003;63762;51.334;22.108;2022-11-20T02:57:56;5;2;1
75187;PMS7003;63762;51.334;22.108;2022-11-20T03:08:03;2;1;0
75187;PMS7003;63762;51.334;22.108;2022-11-20T03:18:10;5;4;0
75187;PMS7003;63762;51.334;22.108;2022-11-20T03:28:17;5;1;0
75187;PMS7003;63762;51.334;22.108;2022-11-20T03:38:24;5;1;0
75187;PMS7003;63762;51.334;22.108;2022-11-20T03:48:32;7;0;0
75187;PMS7003;63762;51.334;22.108;2022-11-20T03:58:39;1;0;0
75187;PMS7003;63762;51.334;22.108;2022-11-20T04:08:46;1;1;0
75187;PMS7003;63762;51.334;22.108;2022-11-20T04:18:54;0;0;0
75187;PMS7003;63762;51.334;22.108;2022-11-20T04:29:00;6;1;0
75187;PMS7003;63762;51.334;22.108;2022-11-20T04:39:11;3;2;1
75187;PMS7003;63762;51.334;22.108;2022-11-20T04:49:15;0;0;0
75187;PMS7003;63762;51.334;22.108;2022-11-20T04:59:22;6;2;0
75187;PMS7003;63762;51.334;22.108;2022-11-20T05:09:29;0;0;0
75187;PMS7003;63762;51.334;22.108;2022-11-20T05:19:36;1;1;0
75187;PMS7003;63762;51.334;22.108;2022-11-20T05:29:43;2;2;0
75187;PMS7003;63762;51.334;22.108;2022-11-20T05:39:50;5;2;0
75187;PMS7003;63762;51.334;22.108;2022-11-20T05:49:58;2;2;0
75187;PMS7003;63762;51.334;22.108;2022-11-20T06:00:05;5;1;1
75187;PMS7003;63762;51.334;22.108;2022-11-20T06:10:12;4;2;1
75187;PMS7003;63762;51.334;22.108;2022-11-20T06:20:19;5;3;2
75187;PMS7003;63762;51.334;22.108;2022-11-20T06:30:26;2;2;2
75187;PMS7003;63762;51.334;22.108;2022-11-20T06:40:33;5;3;2
75187;PMS7003;63762;51.334;22.108;2022-11-20T06:50:40;8;5;3
75187;PMS7003;63762;51.334;22.108;2022-11-20T07:00:47;11;5;3
75187;PMS7003;63762;51.334;22.108;2022-11-20T07:10:58;7;4;3
75187;PMS7003;63762;51.334;22.108;2022-11-20T07:21:02;2;2;1
75187;PMS7003;63762;51.334;22.108;2022-11-20T07:31:09;11;2;1
75187;PMS7003;63762;51.334;22.108;2022-11-20T07:41:16;3;2;1
75187;PMS7003;63762;51.334;22.108;2022-11-20T07:51:23;2;1;1
75187;PMS7003;63762;51.334;22.108;2022-11-20T08:01:30;3;1;1
75187;PMS7003;63762;51.334;22.108;2022-11-20T08:11:37;3;3;1
75187;PMS7003;63762;51.334;22.108;2022-11-20T08:21:50;3;3;1
75187;PMS7003;63762;51.334;22.108;2022-11-20T08:31:52;2;1;0
75187;PMS7003;63762;51.334;22.108;2022-11-20T08:41:59;5;2;1
75187;PMS7003;63762;51.334;22.108;2022-11-20T08:52:06;2;2;0
75187;PMS7003;63762;51.334;22.108;2022-11-20T09:02:13;8;4;1
75187;PMS7003;63762;51.334;22.108;2022-11-20T09:12:20;4;4;2
75187;PMS7003;63762;51.334;22.108;2022-11-20T09:22:27;1;1;1
75187;PMS7003;63762;51.334;22.108;2022-11-20T09:32:35;4;4;0
75187;PMS7003;63762;51.334;22.108;2022-11-20T09:42:45;3;3;1
75187;PMS7003;63762;51.334;22.108;2022-11-20T09:53:01;6;2;1
75187;PMS7003;63762;51.334;22.108;2022-11-20T10:03:16;2;1;0
75187;PMS7003;63762;51.334;22.108;2022-11-20T10:13:23;5;5;4
75187;PMS7003;63762;51.334;22.108;2022-11-20T10:33:45;8;5;0
75187;PMS7003;63762;51.334;22.108;2022-11-20T10:43:58;2;0;0
75187;PMS7003;63762;51.334;22.108;2022-11-20T10:54:13;2;2;1
75187;PMS7003;63762;51.334;22.108;2022-11-20T11:04:30;1;1;0
75187;PMS7003;63762;51.334;22.108;2022-11-20T11:24:52;2;2;0
75187;PMS7003;63762;51.334;22.108;2022-11-20T11:45:01;2;2;1
75187;PMS7003;63762;51.334;22.108;2022-11-20T11:55:07;1;1;0
75187;PMS7003;63762;51.334;22.108;2022-11-20T12:15:30;6;3;2
75187;PMS7003;63762;51.334;22.108;2022-11-20T12:25:35;0;0;0
75187;PMS7003;63762;51.334;22.108;2022-11-20T12:45:54;5;1;0
75187;PMS7003;63762;51.334;22.108;2022-11-20T13:06:18;9;3;1
75187;PMS7003;63762;51.334;22.108;2022-11-20T13:26:32;5;4;3
75187;PMS7003;63762;51.334;22.108;2022-11-20T13:36:34;12;8;5
75187;PMS7003;63762;51.334;22.108;2022-11-20T13:46:41;6;3;2
75187;PMS7003;63762;51.334;22.108;2022-11-20T14:06:56;18;11;5
75187;PMS7003;63762;51.334;22.108;2022-11-20T14:27:11;9;6;3
75187;PMS7003;63762;51.334;22.108;2022-11-20T14:37:24;6;3;0
75187;PMS7003;63762;51.334;22.108;2022-11-20T14:47:28;2;1;1
75187;PMS7003;63762;51.334;22.108;2022-11-20T14:57:32;5;5;2
75187;PMS7003;63762;51.334;22.108;2022-11-20T15:07:36;6;5;4
75187;PMS7003;63762;51.334;22.108;2022-11-20T15:17:41;5;5;3
75187;PMS7003;63762;51.334;22.108;2022-11-20T15:27:43;2;2;1
75187;PMS7003;63762;51.334;22.108;2022-11-20T15:37:45;11;6;4
75187;PMS7003;63762;51.334;22.108;2022-11-20T15:47:46;6;1;0
75187;PMS7003;63762;51.334;22.108;2022-11-20T15:57:48;6;5;2
75187;PMS7003;63762;51.334;22.108;2022-11-20T16:07:50;2;2;1
75187;PMS7003;63762;51.334;22.108;2022-11-20T16:17:52;12;4;1
75187;PMS7003;63762;51.334;22.108;2022-11-20T16:27:53;3;2;2
75187;PMS7003;63762;51.334;22.108;2022-11-20T16:37:54;5;5;2
75187;PMS7003;63762;51.334;22.108;2022-11-20T16:47:55;6;6;4
75187;PMS7003;63762;51.334;22.108;2022-11-20T16:57:58;9;8;4
75187;PMS7003;63762;51.334;22.108;2022-11-20T17:07:59;7;6;3
75187;PMS7003;63762;51.334;22.108;2022-11-20T17:18:03;17;10;6
75187;PMS7003;63762;51.334;22.108;2022-11-20T17:28:10;10;9;4
75187;PMS7003;63762;51.334;22.108;2022-11-20T17:38:17;13;10;5
75187;PMS7003;63762;51.334;22.108;2022-11-20T17:48:25;13;9;3
75187;PMS7003;63762;51.334;22.108;2022-11-20T17:58:32;10;8;4
75187;PMS7003;63762;51.334;22.108;2022-11-20T18:08:39;6;5;4
75187;PMS7003;63762;51.334;22.108;2022-11-20T18:18:46;8;6;4
75187;PMS7003;63762;51.334;22.108;2022-11-20T18:28:53;7;7;3
75187;PMS7003;63762;51.334;22.108;2022-11-20T18:39:00;11;9;6
75187;PMS7003;63762;51.334;22.108;2022-11-20T18:49:08;10;8;4
75187;PMS7003;63762;51.334;22.108;2022-11-20T18:59:15;10;9;4
75187;PMS7003;63762;51.334;22.108;2022-11-20T19:40:22;8;5;3
75187;PMS7003;63762;51.334;22.108;2022-11-20T19:50:23;3;0;0
75187;PMS7003;63762;51.334;22.108;2022-11-20T20:00:24;5;5;3
75187;PMS7003;63762;51.334;22.108;2022-11-20T20:13:10;11;6;3
75187;PMS7003;63762;51.334;22.108;2022-11-20T20:23:17;6;3;2
75187;PMS7003;63762;51.334;22.108;2022-11-20T20:33:24;10;6;3
75187;PMS7003;63762;51.334;22.108;2022-11-20T20:43:31;2;2;2
75187;PMS7003;63762;51.334;22.108;2022-11-20T20:53:43;7;2;2
75187;PMS7003;63762;51.334;22.108;2022-11-20T21:03:46;3;1;1
75187;PMS7003;63762;51.334;22.108;2022-11-20T21:13:53;3;0;0
75187;PMS7003;63762;51.334;22.108;2022-11-20T21:24:00;5;4;1
75187;PMS7003;63762;51.334;22.108;2022-11-20T21:34:09;5;3;2
75187;PMS7003;63762;51.334;22.108;2022-11-20T21:44:14;2;2;0
75187;PMS7003;63762;51.334;22.108;2022-11-20T21:54:21;4;2;1
75187;PMS7003;63762;51.334;22.108;2022-11-20T22:04:28;3;1;0
75187;PMS7003;63762;51.334;22.108;2022-11-20T22:14:36;5;2;1
75187;PMS7003;63762;51.334;22.108;2022-11-20T22:24:43;3;3;2
75187;PMS7003;63762;51.334;22.108;2022-11-20T22:34:50;2;2;1
75187;PMS7003;63762;51.334;22.108;2022-11-20T22:44:57;3;3;1
75187;PMS7003;63762;51.334;22.108;2022-11-20T22:55:04;3;2;2
75187;PMS7003;63762;51.334;22.108;2022-11-20T23:05:11;4;3;2
75187;PMS7003;63762;51.334;22.108;2022-11-20T23:15:18;0;0;0
75187;PMS7003;63762;51.334;22.108;2022-11-20T23:25:26;2;2;1
75187;PMS7003;63762;51.334;22.108;2022-11-20T23:35:36;4;1;0
75187;PMS7003;63762;51.334;22.108;2022-11-20T23:45:40;3;2;1
75187;PMS7003;63762;51.334;22.108;2022-11-20T23:55:48;3;3;1
